createdAt,value
2019-06-26T00:00:36.669Z,1.20
2019-06-26T00:05:41.394Z,0.80
2019-06-26T00:10:45.935Z,0.53
2019-06-26T00:15:50.438Z,1.17
2019-06-26T00:20:55.084Z,1.03
2019-06-26T00:25:59.711Z,1.60
2019-06-26T00:31:04.269Z,1.50
2019-06-26T00:36:08.834Z,1.53
2019-06-26T00:41:13.342Z,1.30
2019-06-26T00:46:17.985Z,1.20
2019-06-26T00:51:22.546Z,1.23
2019-06-26T00:56:27.220Z,1.77
2019-06-26T01:01:31.840Z,1.00
2019-06-26T01:06:45.371Z,1.53
2019-06-26T01:11:49.868Z,1.17
2019-06-26T01:16:54.540Z,1.47
2019-06-26T01:21:59.167Z,1.10
2019-06-26T01:27:03.801Z,0.73
2019-06-26T01:32:08.237Z,0.60
2019-06-26T01:37:12.733Z,0.90
2019-06-26T01:42:17.157Z,1.20
2019-06-26T01:47:21.732Z,0.87
2019-06-26T01:52:26.322Z,1.07
2019-06-26T01:57:30.856Z,1.30
2019-06-26T02:02:35.286Z,1.90
2019-06-26T02:07:40.004Z,1.53
2019-06-26T02:12:44.594Z,1.10
2019-06-26T02:17:49.161Z,1.40
2019-06-26T02:22:53.729Z,1.00
2019-06-26T02:27:58.219Z,1.40
2019-06-26T02:33:02.641Z,1.47
2019-06-26T02:38:07.138Z,1.63
2019-06-26T02:43:11.768Z,1.47
2019-06-26T02:48:16.400Z,1.27
2019-06-26T02:53:20.883Z,1.40
2019-06-26T02:58:25.521Z,1.20
2019-06-26T03:03:30.616Z,1.90
2019-06-26T03:08:35.033Z,1.23
2019-06-26T03:13:39.589Z,1.30
2019-06-26T03:18:44.171Z,0.97
2019-06-26T03:23:48.705Z,1.07
2019-06-26T03:28:53.347Z,1.60
2019-06-26T03:33:57.914Z,1.30
2019-06-26T03:39:02.313Z,1.07
2019-06-26T03:44:06.794Z,0.77
2019-06-26T03:49:11.279Z,1.37
2019-06-26T03:54:16.439Z,1.00
2019-06-26T03:59:20.997Z,1.00
2019-06-26T04:04:25.569Z,1.63
2019-06-26T04:09:30.041Z,1.73
2019-06-26T04:14:34.523Z,1.70
2019-06-26T04:19:39.359Z,1.50
2019-06-26T04:24:43.849Z,1.50
2019-06-26T04:29:48.423Z,1.70
2019-06-26T04:34:54.561Z,1.90
2019-06-26T04:39:59.204Z,1.30
2019-06-26T04:45:05.461Z,1.80
2019-06-26T04:50:11.769Z,2.47
2019-06-26T04:55:16.380Z,1.90
2019-06-26T05:00:21.986Z,2.07
2019-06-26T05:05:38.879Z,2.20
2019-06-26T05:10:32.793Z,2.60
2019-06-26T05:15:37.472Z,3.23
2019-06-26T05:20:42.050Z,1.80
2019-06-26T05:25:46.501Z,1.50
2019-06-26T05:30:51.005Z,2.40
2019-06-26T05:35:55.662Z,2.63
2019-06-26T05:41:00.149Z,1.93
2019-06-26T05:46:04.854Z,1.62
2019-06-26T05:51:09.442Z,1.95
2019-06-26T05:56:13.962Z,1.60
2019-06-26T06:01:18.518Z,1.77
2019-06-26T06:06:23.093Z,1.52
2019-06-26T06:11:27.571Z,1.95
2019-06-26T06:16:46.426Z,1.82
2019-06-26T06:21:38.462Z,2.17
2019-06-26T06:26:42.864Z,2.22
2019-06-26T06:31:47.355Z,1.92
2019-06-26T06:36:51.919Z,1.90
2019-06-26T06:41:56.364Z,1.87
2019-06-26T06:47:04.285Z,2.45
2019-06-26T06:52:07.294Z,1.67
2019-06-26T06:57:11.780Z,2.05
2019-06-26T07:02:16.362Z,1.90
2019-06-26T07:07:20.975Z,2.40
2019-06-26T07:12:25.763Z,2.02
2019-06-26T07:17:30.409Z,2.17
2019-06-26T07:22:35.027Z,1.37
2019-06-26T07:27:39.595Z,1.35
2019-06-26T07:32:44.226Z,2.20
2019-06-26T07:37:48.707Z,1.45
2019-06-26T07:42:53.288Z,1.42
2019-06-26T07:47:57.689Z,1.90
2019-06-26T07:53:02.274Z,1.32
2019-06-26T07:58:06.959Z,1.30
2019-06-26T08:03:11.438Z,1.60
2019-06-26T08:08:15.920Z,1.67
2019-06-26T08:13:20.344Z,1.30
2019-06-26T08:18:24.897Z,2.55
2019-06-26T08:23:29.525Z,1.50
2019-06-26T08:28:33.942Z,1.27
2019-06-26T08:33:38.505Z,1.12
2019-06-26T08:38:42.924Z,1.10
2019-06-26T08:43:47.745Z,0.57
2019-06-26T08:48:53.157Z,1.17
2019-06-26T08:53:57.709Z,1.70
2019-06-26T08:59:02.264Z,0.80
2019-06-26T09:04:06.901Z,0.75
2019-06-26T09:09:11.373Z,1.30
2019-06-26T09:14:16.005Z,0.90
2019-06-26T09:19:20.639Z,0.75
2019-06-26T09:24:25.044Z,1.70
2019-06-26T09:29:31.334Z,1.27
2019-06-26T09:34:35.907Z,0.95
2019-06-26T09:39:40.341Z,1.27
2019-06-26T09:44:44.912Z,1.12
2019-06-26T09:49:52.759Z,1.40
2019-06-26T09:54:57.365Z,1.37
2019-06-26T10:00:01.958Z,0.68
2019-06-26T10:05:10.266Z,2.12
2019-06-26T10:10:16.574Z,0.82
2019-06-26T10:15:21.264Z,1.07
2019-06-26T10:20:25.903Z,0.95
2019-06-26T10:25:30.433Z,2.02
2019-06-26T10:30:35.032Z,0.80
2019-06-26T10:35:39.462Z,1.40
2019-06-26T10:40:44.034Z,0.90
2019-06-26T10:45:48.634Z,1.05
2019-06-26T10:50:58.555Z,0.53
2019-06-26T10:55:59.492Z,0.90
2019-06-26T11:01:04.124Z,1.95
2019-06-26T11:06:08.737Z,0.80
2019-06-26T11:11:13.226Z,0.40
2019-06-26T11:16:17.862Z,0.60
2019-06-26T11:21:22.410Z,0.80
2019-06-26T11:26:26.973Z,1.17
2019-06-26T11:31:31.445Z,1.45
2019-06-26T11:36:36.015Z,0.40
2019-06-26T11:41:40.992Z,0.53
2019-06-26T11:46:45.501Z,1.37
2019-06-26T11:51:51.588Z,0.75
2019-06-26T11:56:56.221Z,0.75
2019-06-26T12:02:00.688Z,0.45
2019-06-26T12:07:05.358Z,0.45
2019-06-26T12:12:09.936Z,1.30
2019-06-26T12:17:14.407Z,0.93
2019-06-26T12:22:19.033Z,0.60
2019-06-26T12:27:23.550Z,0.50
2019-06-26T12:32:28.112Z,1.35
2019-06-26T12:37:37.670Z,0.30
2019-06-26T12:42:39.018Z,0.72
2019-06-26T12:47:43.550Z,0.10
2019-06-26T12:52:48.181Z,1.07
2019-06-26T12:57:52.767Z,0.55
2019-06-26T13:02:57.274Z,0.47
2019-06-26T13:08:01.822Z,0.53
2019-06-26T13:13:06.494Z,0.50
2019-06-26T13:18:11.388Z,0.55
2019-06-26T13:23:16.171Z,0.40
2019-06-26T13:28:20.708Z,0.50
2019-06-26T13:33:25.147Z,1.15
2019-06-26T13:38:29.772Z,0.37
2019-06-26T13:43:34.409Z,0.17
2019-06-26T13:48:38.889Z,0.33
2019-06-26T13:53:43.508Z,0.30
2019-06-26T13:58:48.031Z,1.00
2019-06-26T14:03:52.586Z,0.45
2019-06-26T14:08:57.202Z,0.85
2019-06-26T14:14:01.856Z,0.40
2019-06-26T14:19:06.561Z,0.30
2019-06-26T14:24:11.044Z,0.23
2019-06-26T14:29:20.815Z,0.28
2019-06-26T14:34:21.739Z,0.45
2019-06-26T14:39:26.299Z,0.50
2019-06-26T14:44:30.850Z,0.55
2019-06-26T14:49:36.400Z,0.45
2019-06-26T14:54:40.785Z,0.42
2019-06-26T14:59:45.269Z,0.50
2019-06-26T15:04:50.944Z,0.90
2019-06-26T15:09:55.409Z,0.20
2019-06-26T15:15:00.046Z,0.30
2019-06-26T15:20:05.687Z,0.57
2019-06-26T15:25:10.626Z,0.75
2019-06-26T15:30:17.106Z,0.37
2019-06-26T15:35:22.012Z,0.82
2019-06-26T15:40:26.501Z,0.53
2019-06-26T15:45:31.082Z,1.02
2019-06-26T15:50:35.878Z,0.93
2019-06-26T15:55:40.916Z,0.82
2019-06-26T16:00:47.064Z,1.23
2019-06-26T16:05:51.537Z,1.40
2019-06-26T16:10:56.073Z,0.45
2019-06-26T16:16:00.493Z,0.40
2019-06-26T16:21:05.129Z,0.40
2019-06-26T16:26:09.614Z,0.55
2019-06-26T16:31:14.102Z,0.85
2019-06-26T16:36:18.676Z,0.60
2019-06-26T16:41:23.160Z,0.55
2019-06-26T16:46:27.791Z,0.40
2019-06-26T16:51:32.366Z,0.37
2019-06-26T16:56:37.883Z,0.95
2019-06-26T17:01:42.369Z,0.40
2019-06-26T17:06:46.870Z,1.15
2019-06-26T17:11:51.528Z,0.28
2019-06-26T17:16:58.255Z,0.50
2019-06-26T17:22:02.750Z,0.20
2019-06-26T17:27:08.503Z,0.30
2019-06-26T17:32:12.969Z,0.85
2019-06-26T17:37:17.507Z,0.40
2019-06-26T17:42:22.074Z,0.27
2019-06-26T17:47:26.561Z,0.50
2019-06-26T17:52:35.623Z,0.30
2019-06-26T17:57:38.289Z,0.90
2019-06-26T18:02:43.337Z,0.10
2019-06-26T18:07:47.982Z,0.60
2019-06-26T18:12:52.500Z,0.50
2019-06-26T18:17:57.136Z,0.47
2019-06-26T18:23:07.483Z,0.30
2019-06-26T18:28:08.942Z,0.27
2019-06-26T18:33:14.710Z,0.37
2019-06-26T18:38:19.161Z,0.23
2019-06-26T18:43:23.657Z,0.27
2019-06-26T18:48:28.146Z,0.30
2019-06-26T18:53:32.778Z,0.27
2019-06-26T18:58:37.455Z,0.60
2019-06-26T19:03:41.890Z,1.43
2019-06-26T19:08:46.415Z,0.37
2019-06-26T19:13:51.330Z,0.70
2019-06-26T19:18:57.203Z,1.00
2019-06-26T19:24:10.098Z,0.67
2019-06-26T19:29:08.122Z,0.80
2019-06-26T19:34:12.606Z,0.33
2019-06-26T19:39:20.546Z,0.97
2019-06-26T19:44:23.629Z,1.03
2019-06-26T19:49:28.251Z,0.47
2019-06-26T19:54:32.730Z,0.47
2019-06-26T19:59:37.705Z,0.73
2019-06-26T20:04:42.184Z,0.30
2019-06-26T20:09:46.597Z,0.53
2019-06-26T20:14:51.039Z,0.90
2019-06-26T20:19:55.609Z,0.50
2019-06-26T20:25:00.280Z,0.80
2019-06-26T20:30:09.603Z,0.50
2019-06-26T20:35:12.566Z,1.10
2019-06-26T20:40:17.296Z,0.40
2019-06-26T20:45:21.804Z,0.73
2019-06-26T20:50:26.203Z,0.73
2019-06-26T20:55:30.763Z,0.60
2019-06-26T21:00:35.328Z,0.27
2019-06-26T21:05:39.843Z,1.17
2019-06-26T21:10:44.389Z,0.63
2019-06-26T21:15:48.845Z,0.70
2019-06-26T21:20:53.387Z,0.37
2019-06-26T21:25:57.849Z,1.57
2019-06-26T21:31:02.473Z,0.60
2019-06-26T21:36:07.207Z,0.60
2019-06-26T21:41:11.908Z,1.57
2019-06-26T21:46:16.337Z,0.60
2019-06-26T21:51:20.895Z,1.17
2019-06-26T21:56:25.676Z,0.93
2019-06-26T22:01:30.673Z,1.00
2019-06-26T22:06:35.992Z,1.40
2019-06-26T22:11:40.601Z,0.63
2019-06-26T22:16:45.159Z,1.00
2019-06-26T22:21:49.782Z,1.67
2019-06-26T22:26:54.349Z,0.40
2019-06-26T22:31:58.926Z,0.40
2019-06-26T22:37:03.492Z,0.50
2019-06-26T22:42:07.983Z,0.50
2019-06-26T22:47:12.540Z,0.20
2019-06-26T22:52:17.102Z,1.50
2019-06-26T22:57:21.654Z,0.43
2019-06-26T23:02:26.087Z,0.33
2019-06-26T23:07:30.520Z,0.30
2019-06-26T23:12:35.077Z,0.77
2019-06-26T23:17:39.590Z,0.57
2019-06-26T23:22:44.153Z,0.73
2019-06-26T23:27:48.655Z,1.20
2019-06-26T23:32:53.142Z,0.97
2019-06-26T23:37:57.588Z,0.43
2019-06-26T23:43:02.105Z,0.63
2019-06-26T23:48:06.612Z,0.20
2019-06-26T23:53:11.111Z,0.37
2019-06-26T23:58:15.682Z,1.00
